sensor_id;sensor_type;location;lat;lon;timestamp;P1;durP1;ratioP1;P2;durP2;ratioP2
7829;SDS011;3960;51.86894000;5.39848000;2022-07-22T00:00:50;12.88;;;3.60;;
7829;SDS011;3960;51.86894000;5.39848000;2022-07-22T00:03:15;13.93;;;3.63;;
7829;SDS011;3960;51.86894000;5.39848000;2022-07-22T00:05:40;13.13;;;3.97;;
7829;SDS011;3960;51.86894000;5.39848000;2022-07-22T00:08:06;14.38;;;3.95;;
7829;SDS011;3960;51.86894000;5.39848000;2022-07-22T00:10:31;11.10;;;3.67;;
7829;SDS011;3960;51.86894000;5.39848000;2022-07-22T00:12:56;11.57;;;3.75;;
7829;SDS011;3960;51.86894000;5.39848000;2022-07-22T00:15:22;11.88;;;4.18;;
7829;SDS011;3960;51.86894000;5.39848000;2022-07-22T00:17:47;14.13;;;4.15;;
7829;SDS011;3960;51.86894000;5.39848000;2022-07-22T00:20:12;12.35;;;3.80;;
7829;SDS011;3960;51.86894000;5.39848000;2022-07-22T00:22:37;15.15;;;4.15;;
7829;SDS011;3960;51.86894000;5.39848000;2022-07-22T00:25:03;15.85;;;4.03;;
7829;SDS011;3960;51.86894000;5.39848000;2022-07-22T00:27:29;12.05;;;3.92;;
7829;SDS011;3960;51.86894000;5.39848000;2022-07-22T00:29:54;10.95;;;4.20;;
7829;SDS011;3960;51.86894000;5.39848000;2022-07-22T00:32:20;15.90;;;4.43;;
7829;SDS011;3960;51.86894000;5.39848000;2022-07-22T00:34:45;9.50;;;4.10;;
7829;SDS011;3960;51.86894000;5.39848000;2022-07-22T00:37:10;17.95;;;4.32;;
7829;SDS011;3960;51.86894000;5.39848000;2022-07-22T00:39:36;12.95;;;4.28;;
7829;SDS011;3960;51.86894000;5.39848000;2022-07-22T00:42:02;12.93;;;3.97;;
7829;SDS011;3960;51.86894000;5.39848000;2022-07-22T00:44:27;11.90;;;4.82;;
7829;SDS011;3960;51.86894000;5.39848000;2022-07-22T00:46:53;7.88;;;3.55;;
7829;SDS011;3960;51.86894000;5.39848000;2022-07-22T00:49:18;17.33;;;4.35;;
7829;SDS011;3960;51.86894000;5.39848000;2022-07-22T00:51:43;13.45;;;4.00;;
7829;SDS011;3960;51.86894000;5.39848000;2022-07-22T00:54:11;16.23;;;4.35;;
7829;SDS011;3960;51.86894000;5.39848000;2022-07-22T00:56:37;11.70;;;3.50;;
7829;SDS011;3960;51.86894000;5.39848000;2022-07-22T00:59:03;13.68;;;4.43;;
7829;SDS011;3960;51.86894000;5.39848000;2022-07-22T01:01:31;16.42;;;4.35;;
7829;SDS011;3960;51.86894000;5.39848000;2022-07-22T01:03:57;14.00;;;4.30;;
7829;SDS011;3960;51.86894000;5.39848000;2022-07-22T01:06:22;8.50;;;3.85;;
7829;SDS011;3960;51.86894000;5.39848000;2022-07-22T01:08:48;10.75;;;4.30;;
7829;SDS011;3960;51.86894000;5.39848000;2022-07-22T01:11:15;18.60;;;3.83;;
7829;SDS011;3960;51.86894000;5.39848000;2022-07-22T01:13:42;9.70;;;4.10;;
7829;SDS011;3960;51.86894000;5.39848000;2022-07-22T01:16:09;22.25;;;4.57;;
7829;SDS011;3960;51.86894000;5.39848000;2022-07-22T01:18:38;9.98;;;3.72;;
7829;SDS011;3960;51.86894000;5.39848000;2022-07-22T01:21:05;22.63;;;4.38;;
7829;SDS011;3960;51.86894000;5.39848000;2022-07-22T01:23:31;12.73;;;4.20;;
7829;SDS011;3960;51.86894000;5.39848000;2022-07-22T01:25:57;19.33;;;4.75;;
7829;SDS011;3960;51.86894000;5.39848000;2022-07-22T01:28:23;11.07;;;3.67;;
7829;SDS011;3960;51.86894000;5.39848000;2022-07-22T01:30:49;13.00;;;3.92;;
7829;SDS011;3960;51.86894000;5.39848000;2022-07-22T01:33:18;15.63;;;4.32;;
7829;SDS011;3960;51.86894000;5.39848000;2022-07-22T01:35:44;16.88;;;4.72;;
7829;SDS011;3960;51.86894000;5.39848000;2022-07-22T01:38:10;11.65;;;4.10;;
7829;SDS011;3960;51.86894000;5.39848000;2022-07-22T01:40:35;14.68;;;4.07;;
7829;SDS011;3960;51.86894000;5.39848000;2022-07-22T01:43:01;10.32;;;3.67;;
7829;SDS011;3960;51.86894000;5.39848000;2022-07-22T01:45:27;16.23;;;4.45;;
7829;SDS011;3960;51.86894000;5.39848000;2022-07-22T01:47:52;19.40;;;3.90;;
7829;SDS011;3960;51.86894000;5.39848000;2022-07-22T01:50:17;10.23;;;4.20;;
7829;SDS011;3960;51.86894000;5.39848000;2022-07-22T01:52:43;14.80;;;3.88;;
7829;SDS011;3960;51.86894000;5.39848000;2022-07-22T01:55:08;9.02;;;4.15;;
7829;SDS011;3960;51.86894000;5.39848000;2022-07-22T01:57:35;15.43;;;4.68;;
7829;SDS011;3960;51.86894000;5.39848000;2022-07-22T02:00:01;18.10;;;4.88;;
7829;SDS011;3960;51.86894000;5.39848000;2022-07-22T02:02:27;10.50;;;4.35;;
7829;SDS011;3960;51.86894000;5.39848000;2022-07-22T02:04:53;13.45;;;4.65;;
7829;SDS011;3960;51.86894000;5.39848000;2022-07-22T02:07:18;13.63;;;3.97;;
7829;SDS011;3960;51.86894000;5.39848000;2022-07-22T02:09:43;9.55;;;4.50;;
7829;SDS011;3960;51.86894000;5.39848000;2022-07-22T02:12:08;11.85;;;4.50;;
7829;SDS011;3960;51.86894000;5.39848000;2022-07-22T02:14:34;17.17;;;4.70;;
7829;SDS011;3960;51.86894000;5.39848000;2022-07-22T02:16:59;16.17;;;4.30;;
7829;SDS011;3960;51.86894000;5.39848000;2022-07-22T02:19:24;18.08;;;5.03;;
7829;SDS011;3960;51.86894000;5.39848000;2022-07-22T02:21:49;16.67;;;5.22;;
7829;SDS011;3960;51.86894000;5.39848000;2022-07-22T02:24:15;12.00;;;3.65;;
7829;SDS011;3960;51.86894000;5.39848000;2022-07-22T02:26:40;14.05;;;3.70;;
7829;SDS011;3960;51.86894000;5.39848000;2022-07-22T02:29:06;9.15;;;4.00;;
7829;SDS011;3960;51.86894000;5.39848000;2022-07-22T02:31:31;11.55;;;4.13;;
7829;SDS011;3960;51.86894000;5.39848000;2022-07-22T02:33:56;9.40;;;4.10;;
7829;SDS011;3960;51.86894000;5.39848000;2022-07-22T02:36:22;17.75;;;4.72;;
7829;SDS011;3960;51.86894000;5.39848000;2022-07-22T02:38:47;9.18;;;3.67;;
7829;SDS011;3960;51.86894000;5.39848000;2022-07-22T02:41:13;12.73;;;4.10;;
7829;SDS011;3960;51.86894000;5.39848000;2022-07-22T02:43:38;10.82;;;3.80;;
7829;SDS011;3960;51.86894000;5.39848000;2022-07-22T02:46:03;16.50;;;3.58;;
7829;SDS011;3960;51.86894000;5.39848000;2022-07-22T02:48:29;8.93;;;3.70;;
7829;SDS011;3960;51.86894000;5.39848000;2022-07-22T02:50:54;12.52;;;4.38;;
7829;SDS011;3960;51.86894000;5.39848000;2022-07-22T02:53:20;13.07;;;4.75;;
7829;SDS011;3960;51.86894000;5.39848000;2022-07-22T02:55:45;13.18;;;3.78;;
7829;SDS011;3960;51.86894000;5.39848000;2022-07-22T02:58:10;10.15;;;4.38;;
7829;SDS011;3960;51.86894000;5.39848000;2022-07-22T03:00:36;10.38;;;4.03;;
7829;SDS011;3960;51.86894000;5.39848000;2022-07-22T03:03:05;9.48;;;4.10;;
7829;SDS011;3960;51.86894000;5.39848000;2022-07-22T03:05:30;13.38;;;4.88;;
7829;SDS011;3960;51.86894000;5.39848000;2022-07-22T03:07:56;12.68;;;4.60;;
7829;SDS011;3960;51.86894000;5.39848000;2022-07-22T03:10:21;11.48;;;4.10;;
7829;SDS011;3960;51.86894000;5.39848000;2022-07-22T03:12:46;20.95;;;4.45;;
7829;SDS011;3960;51.86894000;5.39848000;2022-07-22T03:15:12;13.20;;;4.35;;
7829;SDS011;3960;51.86894000;5.39848000;2022-07-22T03:17:37;11.93;;;4.88;;
7829;SDS011;3960;51.86894000;5.39848000;2022-07-22T03:20:06;16.02;;;3.67;;
7829;SDS011;3960;51.86894000;5.39848000;2022-07-22T03:22:33;11.07;;;3.85;;
7829;SDS011;3960;51.86894000;5.39848000;2022-07-22T03:24:58;11.52;;;4.60;;
7829;SDS011;3960;51.86894000;5.39848000;2022-07-22T03:27:24;15.88;;;4.47;;
7829;SDS011;3960;51.86894000;5.39848000;2022-07-22T03:29:49;14.82;;;3.70;;
7829;SDS011;3960;51.86894000;5.39848000;2022-07-22T03:32:15;11.48;;;4.32;;
7829;SDS011;3960;51.86894000;5.39848000;2022-07-22T03:34:40;11.05;;;4.60;;
7829;SDS011;3960;51.86894000;5.39848000;2022-07-22T03:37:06;11.90;;;4.47;;
7829;SDS011;3960;51.86894000;5.39848000;2022-07-22T03:39:31;16.33;;;4.05;;
7829;SDS011;3960;51.86894000;5.39848000;2022-07-22T03:41:56;10.55;;;3.97;;
7829;SDS011;3960;51.86894000;5.39848000;2022-07-22T03:44:22;8.55;;;4.10;;
7829;SDS011;3960;51.86894000;5.39848000;2022-07-22T03:46:47;10.75;;;4.10;;
7829;SDS011;3960;51.86894000;5.39848000;2022-07-22T03:49:12;12.85;;;4.20;;
7829;SDS011;3960;51.86894000;5.39848000;2022-07-22T03:51:38;9.70;;;4.00;;
7829;SDS011;3960;51.86894000;5.39848000;2022-07-22T03:54:03;13.68;;;4.15;;
7829;SDS011;3960;51.86894000;5.39848000;2022-07-22T03:56:28;12.30;;;4.80;;
7829;SDS011;3960;51.86894000;5.39848000;2022-07-22T03:58:54;12.10;;;3.80;;
7829;SDS011;3960;51.86894000;5.39848000;2022-07-22T04:01:19;7.75;;;3.78;;
7829;SDS011;3960;51.86894000;5.39848000;2022-07-22T04:03:44;10.65;;;3.90;;
7829;SDS011;3960;51.86894000;5.39848000;2022-07-22T04:06:09;11.63;;;3.97;;
7829;SDS011;3960;51.86894000;5.39848000;2022-07-22T04:08:35;11.82;;;4.18;;
7829;SDS011;3960;51.86894000;5.39848000;2022-07-22T04:11:00;12.90;;;3.95;;
7829;SDS011;3960;51.86894000;5.39848000;2022-07-22T04:13:25;8.40;;;3.97;;
7829;SDS011;3960;51.86894000;5.39848000;2022-07-22T04:15:51;11.65;;;4.85;;
7829;SDS011;3960;51.86894000;5.39848000;2022-07-22T04:18:16;12.32;;;4.30;;
7829;SDS011;3960;51.86894000;5.39848000;2022-07-22T04:20:42;8.32;;;3.97;;
7829;SDS011;3960;51.86894000;5.39848000;2022-07-22T04:23:08;11.45;;;4.25;;
7829;SDS011;3960;51.86894000;5.39848000;2022-07-22T04:25:33;7.95;;;3.75;;
7829;SDS011;3960;51.86894000;5.39848000;2022-07-22T04:27:58;12.13;;;4.05;;
7829;SDS011;3960;51.86894000;5.39848000;2022-07-22T04:30:23;13.45;;;3.97;;
7829;SDS011;3960;51.86894000;5.39848000;2022-07-22T04:32:49;9.15;;;3.28;;
7829;SDS011;3960;51.86894000;5.39848000;2022-07-22T04:35:14;11.95;;;4.57;;
7829;SDS011;3960;51.86894000;5.39848000;2022-07-22T04:37:39;10.27;;;3.20;;
7829;SDS011;3960;51.86894000;5.39848000;2022-07-22T04:40:05;12.65;;;3.83;;
7829;SDS011;3960;51.86894000;5.39848000;2022-07-22T04:42:30;15.10;;;4.00;;
7829;SDS011;3960;51.86894000;5.39848000;2022-07-22T04:44:56;7.70;;;3.35;;
7829;SDS011;3960;51.86894000;5.39848000;2022-07-22T04:47:21;13.75;;;3.47;;
7829;SDS011;3960;51.86894000;5.39848000;2022-07-22T04:49:46;10.02;;;3.47;;
7829;SDS011;3960;51.86894000;5.39848000;2022-07-22T04:52:11;10.38;;;3.45;;
7829;SDS011;3960;51.86894000;5.39848000;2022-07-22T04:54:37;13.75;;;3.53;;
7829;SDS011;3960;51.86894000;5.39848000;2022-07-22T04:57:02;13.10;;;3.42;;
7829;SDS011;3960;51.86894000;5.39848000;2022-07-22T04:59:27;10.20;;;4.00;;
7829;SDS011;3960;51.86894000;5.39848000;2022-07-22T05:01:53;8.80;;;3.42;;
7829;SDS011;3960;51.86894000;5.39848000;2022-07-22T05:04:18;16.90;;;3.70;;
7829;SDS011;3960;51.86894000;5.39848000;2022-07-22T05:06:43;10.20;;;3.47;;
7829;SDS011;3960;51.86894000;5.39848000;2022-07-22T05:09:09;9.30;;;3.47;;
7829;SDS011;3960;51.86894000;5.39848000;2022-07-22T05:11:34;13.95;;;3.50;;
7829;SDS011;3960;51.86894000;5.39848000;2022-07-22T05:13:59;7.75;;;3.15;;
7829;SDS011;3960;51.86894000;5.39848000;2022-07-22T05:16:24;17.15;;;4.03;;
7829;SDS011;3960;51.86894000;5.39848000;2022-07-22T05:18:50;9.82;;;2.88;;
7829;SDS011;3960;51.86894000;5.39848000;2022-07-22T05:21:15;9.40;;;3.20;;
7829;SDS011;3960;51.86894000;5.39848000;2022-07-22T05:23:40;20.08;;;3.40;;
7829;SDS011;3960;51.86894000;5.39848000;2022-07-22T05:26:06;24.13;;;3.30;;
7829;SDS011;3960;51.86894000;5.39848000;2022-07-22T05:28:31;8.65;;;3.10;;
7829;SDS011;3960;51.86894000;5.39848000;2022-07-22T05:30:56;11.77;;;3.33;;
7829;SDS011;3960;51.86894000;5.39848000;2022-07-22T05:33:22;9.50;;;3.72;;
7829;SDS011;3960;51.86894000;5.39848000;2022-07-22T05:35:47;11.93;;;3.00;;
7829;SDS011;3960;51.86894000;5.39848000;2022-07-22T05:38:12;6.75;;;2.75;;
7829;SDS011;3960;51.86894000;5.39848000;2022-07-22T05:40:38;8.18;;;2.55;;
7829;SDS011;3960;51.86894000;5.39848000;2022-07-22T05:43:03;6.40;;;2.10;;
7829;SDS011;3960;51.86894000;5.39848000;2022-07-22T05:45:28;12.38;;;3.15;;
7829;SDS011;3960;51.86894000;5.39848000;2022-07-22T05:47:54;14.45;;;2.60;;
7829;SDS011;3960;51.86894000;5.39848000;2022-07-22T05:50:19;10.90;;;2.85;;
7829;SDS011;3960;51.86894000;5.39848000;2022-07-22T05:52:44;8.10;;;2.40;;
7829;SDS011;3960;51.86894000;5.39848000;2022-07-22T05:55:09;5.57;;;2.33;;
7829;SDS011;3960;51.86894000;5.39848000;2022-07-22T05:57:35;6.28;;;2.40;;
7829;SDS011;3960;51.86894000;5.39848000;2022-07-22T06:00:01;6.25;;;2.80;;
7829;SDS011;3960;51.86894000;5.39848000;2022-07-22T06:02:31;10.23;;;2.70;;
7829;SDS011;3960;51.86894000;5.39848000;2022-07-22T06:04:56;8.77;;;3.05;;
7829;SDS011;3960;51.86894000;5.39848000;2022-07-22T06:07:21;10.05;;;2.83;;
7829;SDS011;3960;51.86894000;5.39848000;2022-07-22T06:09:47;14.25;;;2.45;;
7829;SDS011;3960;51.86894000;5.39848000;2022-07-22T06:12:12;15.25;;;3.38;;
7829;SDS011;3960;51.86894000;5.39848000;2022-07-22T06:14:37;10.63;;;2.67;;
7829;SDS011;3960;51.86894000;5.39848000;2022-07-22T06:17:03;4.20;;;1.90;;
7829;SDS011;3960;51.86894000;5.39848000;2022-07-22T06:19:28;9.02;;;2.13;;
7829;SDS011;3960;51.86894000;5.39848000;2022-07-22T06:21:54;6.30;;;2.10;;
7829;SDS011;3960;51.86894000;5.39848000;2022-07-22T06:24:20;5.50;;;1.75;;
7829;SDS011;3960;51.86894000;5.39848000;2022-07-22T06:26:45;4.93;;;1.95;;
7829;SDS011;3960;51.86894000;5.39848000;2022-07-22T06:29:11;7.38;;;2.15;;
7829;SDS011;3960;51.86894000;5.39848000;2022-07-22T06:31:36;8.38;;;2.28;;
7829;SDS011;3960;51.86894000;5.39848000;2022-07-22T06:34:02;4.63;;;1.88;;
7829;SDS011;3960;51.86894000;5.39848000;2022-07-22T06:36:30;5.45;;;1.88;;
7829;SDS011;3960;51.86894000;5.39848000;2022-07-22T06:38:56;7.72;;;1.67;;
7829;SDS011;3960;51.86894000;5.39848000;2022-07-22T06:41:22;8.05;;;2.00;;
7829;SDS011;3960;51.86894000;5.39848000;2022-07-22T06:43:47;6.85;;;1.52;;
7829;SDS011;3960;51.86894000;5.39848000;2022-07-22T06:46:12;5.22;;;1.70;;
7829;SDS011;3960;51.86894000;5.39848000;2022-07-22T06:48:38;2.67;;;1.42;;
7829;SDS011;3960;51.86894000;5.39848000;2022-07-22T06:51:03;3.92;;;1.42;;
7829;SDS011;3960;51.86894000;5.39848000;2022-07-22T06:53:28;7.22;;;1.88;;
7829;SDS011;3960;51.86894000;5.39848000;2022-07-22T06:55:53;3.92;;;1.45;;
7829;SDS011;3960;51.86894000;5.39848000;2022-07-22T06:58:19;3.70;;;1.50;;
7829;SDS011;3960;51.86894000;5.39848000;2022-07-22T07:00:44;6.15;;;1.77;;
7829;SDS011;3960;51.86894000;5.39848000;2022-07-22T07:03:10;6.20;;;1.55;;
7829;SDS011;3960;51.86894000;5.39848000;2022-07-22T07:05:35;2.50;;;1.40;;
7829;SDS011;3960;51.86894000;5.39848000;2022-07-22T07:08:01;5.45;;;1.55;;
7829;SDS011;3960;51.86894000;5.39848000;2022-07-22T07:10:26;3.50;;;1.35;;
7829;SDS011;3960;51.86894000;5.39848000;2022-07-22T07:12:55;2.75;;;1.20;;
7829;SDS011;3960;51.86894000;5.39848000;2022-07-22T07:15:22;4.88;;;1.33;;
7829;SDS011;3960;51.86894000;5.39848000;2022-07-22T07:17:47;9.57;;;1.60;;
7829;SDS011;3960;51.86894000;5.39848000;2022-07-22T07:20:12;6.05;;;1.58;;
7829;SDS011;3960;51.86894000;5.39848000;2022-07-22T07:22:38;6.93;;;1.35;;
7829;SDS011;3960;51.86894000;5.39848000;2022-07-22T07:25:04;6.63;;;1.63;;
7829;SDS011;3960;51.86894000;5.39848000;2022-07-22T07:27:31;4.65;;;1.55;;
7829;SDS011;3960;51.86894000;5.39848000;2022-07-22T07:29:56;3.63;;;1.17;;
7829;SDS011;3960;51.86894000;5.39848000;2022-07-22T07:32:21;10.35;;;1.90;;
7829;SDS011;3960;51.86894000;5.39848000;2022-07-22T07:34:47;4.05;;;1.10;;
7829;SDS011;3960;51.86894000;5.39848000;2022-07-22T07:37:12;6.10;;;1.42;;
7829;SDS011;3960;51.86894000;5.39848000;2022-07-22T07:39:37;4.72;;;1.30;;
7829;SDS011;3960;51.86894000;5.39848000;2022-07-22T07:42:03;3.65;;;1.10;;
7829;SDS011;3960;51.86894000;5.39848000;2022-07-22T07:44:28;3.40;;;1.17;;
7829;SDS011;3960;51.86894000;5.39848000;2022-07-22T07:46:54;2.40;;;1.33;;
7829;SDS011;3960;51.86894000;5.39848000;2022-07-22T07:49:19;4.50;;;1.42;;
7829;SDS011;3960;51.86894000;5.39848000;2022-07-22T07:51:44;2.80;;;1.23;;
7829;SDS011;3960;51.86894000;5.39848000;2022-07-22T07:54:09;2.97;;;1.00;;
7829;SDS011;3960;51.86894000;5.39848000;2022-07-22T07:56:35;2.90;;;1.00;;
7829;SDS011;3960;51.86894000;5.39848000;2022-07-22T07:59:00;4.97;;;1.10;;
7829;SDS011;3960;51.86894000;5.39848000;2022-07-22T08:01:25;3.70;;;1.00;;
7829;SDS011;3960;51.86894000;5.39848000;2022-07-22T08:03:51;4.80;;;1.20;;
7829;SDS011;3960;51.86894000;5.39848000;2022-07-22T08:06:16;3.80;;;1.38;;
7829;SDS011;3960;51.86894000;5.39848000;2022-07-22T08:08:41;1.88;;;1.20;;
7829;SDS011;3960;51.86894000;5.39848000;2022-07-22T08:11:07;2.50;;;1.08;;
7829;SDS011;3960;51.86894000;5.39848000;2022-07-22T08:13:32;4.82;;;1.20;;
7829;SDS011;3960;51.86894000;5.39848000;2022-07-22T08:15:57;4.25;;;1.33;;
7829;SDS011;3960;51.86894000;5.39848000;2022-07-22T08:18:23;5.13;;;1.17;;
7829;SDS011;3960;51.86894000;5.39848000;2022-07-22T08:20:48;2.53;;;1.25;;
7829;SDS011;3960;51.86894000;5.39848000;2022-07-22T08:23:14;5.90;;;1.40;;
7829;SDS011;3960;51.86894000;5.39848000;2022-07-22T08:25:39;3.05;;;1.15;;
7829;SDS011;3960;51.86894000;5.39848000;2022-07-22T08:28:05;3.78;;;0.98;;
7829;SDS011;3960;51.86894000;5.39848000;2022-07-22T08:30:30;3.13;;;1.63;;
7829;SDS011;3960;51.86894000;5.39848000;2022-07-22T08:32:55;3.03;;;1.17;;
7829;SDS011;3960;51.86894000;5.39848000;2022-07-22T08:35:21;4.78;;;1.50;;
7829;SDS011;3960;51.86894000;5.39848000;2022-07-22T08:37:46;2.28;;;1.02;;
7829;SDS011;3960;51.86894000;5.39848000;2022-07-22T08:40:12;2.83;;;1.45;;
7829;SDS011;3960;51.86894000;5.39848000;2022-07-22T08:42:41;2.85;;;1.08;;
7829;SDS011;3960;51.86894000;5.39848000;2022-07-22T08:45:08;3.80;;;1.13;;
7829;SDS011;3960;51.86894000;5.39848000;2022-07-22T08:47:34;2.53;;;1.13;;
7829;SDS011;3960;51.86894000;5.39848000;2022-07-22T08:50:00;3.28;;;1.20;;
7829;SDS011;3960;51.86894000;5.39848000;2022-07-22T08:52:25;2.45;;;1.30;;
7829;SDS011;3960;51.86894000;5.39848000;2022-07-22T08:54:51;4.03;;;1.45;;
7829;SDS011;3960;51.86894000;5.39848000;2022-07-22T08:57:17;3.13;;;1.25;;
7829;SDS011;3960;51.86894000;5.39848000;2022-07-22T08:59:53;3.83;;;1.38;;
7829;SDS011;3960;51.86894000;5.39848000;2022-07-22T09:02:20;8.20;;;1.33;;
7829;SDS011;3960;51.86894000;5.39848000;2022-07-22T09:04:50;3.90;;;1.20;;
7829;SDS011;3960;51.86894000;5.39848000;2022-07-22T09:07:25;2.42;;;1.10;;
7829;SDS011;3960;51.86894000;5.39848000;2022-07-22T09:10:03;4.75;;;1.70;;
7829;SDS011;3960;51.86894000;5.39848000;2022-07-22T09:12:30;5.30;;;1.48;;
7829;SDS011;3960;51.86894000;5.39848000;2022-07-22T09:14:57;3.00;;;1.10;;
7829;SDS011;3960;51.86894000;5.39848000;2022-07-22T09:19:50;4.18;;;1.20;;
7829;SDS011;3960;51.86894000;5.39848000;2022-07-22T09:22:30;3.05;;;1.35;;
7829;SDS011;3960;51.86894000;5.39848000;2022-07-22T09:27:53;5.72;;;1.58;;
7829;SDS011;3960;51.86894000;5.39848000;2022-07-22T09:30:24;3.28;;;1.15;;
7829;SDS011;3960;51.86894000;5.39848000;2022-07-22T09:32:51;3.45;;;1.00;;
7829;SDS011;3960;51.86894000;5.39848000;2022-07-22T09:35:18;4.60;;;1.35;;
7829;SDS011;3960;51.86894000;5.39848000;2022-07-22T09:37:51;2.85;;;1.35;;
7829;SDS011;3960;51.86894000;5.39848000;2022-07-22T09:40:22;2.45;;;1.40;;
7829;SDS011;3960;51.86894000;5.39848000;2022-07-22T09:42:55;3.92;;;1.20;;
7829;SDS011;3960;51.86894000;5.39848000;2022-07-22T09:47:50;2.30;;;1.08;;
7829;SDS011;3960;51.86894000;5.39848000;2022-07-22T09:52:42;2.55;;;0.80;;
7829;SDS011;3960;51.86894000;5.39848000;2022-07-22T09:55:08;4.65;;;1.13;;
7829;SDS011;3960;51.86894000;5.39848000;2022-07-22T09:57:35;4.85;;;1.25;;
7829;SDS011;3960;51.86894000;5.39848000;2022-07-22T10:00:00;2.72;;;1.10;;
7829;SDS011;3960;51.86894000;5.39848000;2022-07-22T10:02:27;5.38;;;1.25;;
7829;SDS011;3960;51.86894000;5.39848000;2022-07-22T10:04:52;3.58;;;1.50;;
7829;SDS011;3960;51.86894000;5.39848000;2022-07-22T10:07:20;2.25;;;1.08;;
7829;SDS011;3960;51.86894000;5.39848000;2022-07-22T10:09:48;4.40;;;1.27;;
7829;SDS011;3960;51.86894000;5.39848000;2022-07-22T10:12:14;4.85;;;1.48;;
7829;SDS011;3960;51.86894000;5.39848000;2022-07-22T10:14:40;3.58;;;1.20;;
7829;SDS011;3960;51.86894000;5.39848000;2022-07-22T10:17:06;7.38;;;1.17;;
7829;SDS011;3960;51.86894000;5.39848000;2022-07-22T10:19:31;5.03;;;1.35;;
7829;SDS011;3960;51.86894000;5.39848000;2022-07-22T10:21:56;3.05;;;1.20;;
7829;SDS011;3960;51.86894000;5.39848000;2022-07-22T10:24:22;2.03;;;1.00;;
7829;SDS011;3960;51.86894000;5.39848000;2022-07-22T10:26:56;4.90;;;1.10;;
7829;SDS011;3960;51.86894000;5.39848000;2022-07-22T10:34:40;2.50;;;1.10;;
7829;SDS011;3960;51.86894000;5.39848000;2022-07-22T10:40:15;3.40;;;1.25;;
7829;SDS011;3960;51.86894000;5.39848000;2022-07-22T10:45:23;5.68;;;1.77;;
7829;SDS011;3960;51.86894000;5.39848000;2022-07-22T10:47:51;2.25;;;1.30;;
7829;SDS011;3960;51.86894000;5.39848000;2022-07-22T10:53:00;5.65;;;1.42;;
7829;SDS011;3960;51.86894000;5.39848000;2022-07-22T10:55:26;1.40;;;1.20;;
7829;SDS011;3960;51.86894000;5.39848000;2022-07-22T10:57:51;2.47;;;1.05;;
7829;SDS011;3960;51.86894000;5.39848000;2022-07-22T11:00:17;2.60;;;1.50;;
7829;SDS011;3960;51.86894000;5.39848000;2022-07-22T11:02:42;3.28;;;1.40;;
7829;SDS011;3960;51.86894000;5.39848000;2022-07-22T11:05:08;2.88;;;1.58;;
7829;SDS011;3960;51.86894000;5.39848000;2022-07-22T11:07:34;1.65;;;1.33;;
7829;SDS011;3960;51.86894000;5.39848000;2022-07-22T11:10:08;3.00;;;1.20;;
7829;SDS011;3960;51.86894000;5.39848000;2022-07-22T11:12:37;5.15;;;1.45;;
7829;SDS011;3960;51.86894000;5.39848000;2022-07-22T11:15:03;3.00;;;1.48;;
7829;SDS011;3960;51.86894000;5.39848000;2022-07-22T11:17:31;2.60;;;1.40;;
7829;SDS011;3960;51.86894000;5.39848000;2022-07-22T11:19:59;8.30;;;1.50;;
7829;SDS011;3960;51.86894000;5.39848000;2022-07-22T11:22:29;4.97;;;1.45;;
7829;SDS011;3960;51.86894000;5.39848000;2022-07-22T11:24:54;3.13;;;1.30;;
7829;SDS011;3960;51.86894000;5.39848000;2022-07-22T11:27:21;2.72;;;1.42;;
7829;SDS011;3960;51.86894000;5.39848000;2022-07-22T11:29:50;3.85;;;1.13;;
7829;SDS011;3960;51.86894000;5.39848000;2022-07-22T11:32:17;3.78;;;1.30;;
7829;SDS011;3960;51.86894000;5.39848000;2022-07-22T11:34:45;4.38;;;1.33;;
7829;SDS011;3960;51.86894000;5.39848000;2022-07-22T11:37:11;2.08;;;1.40;;
7829;SDS011;3960;51.86894000;5.39848000;2022-07-22T11:39:38;7.78;;;1.20;;
7829;SDS011;3960;51.86894000;5.39848000;2022-07-22T11:42:03;2.10;;;1.08;;
7829;SDS011;3960;51.86894000;5.39848000;2022-07-22T11:44:30;1.95;;;1.10;;
7829;SDS011;3960;51.86894000;5.39848000;2022-07-22T11:46:59;5.32;;;1.25;;
7829;SDS011;3960;51.86894000;5.39848000;2022-07-22T11:49:26;3.05;;;1.50;;
7829;SDS011;3960;51.86894000;5.39848000;2022-07-22T11:51:52;3.88;;;1.40;;
7829;SDS011;3960;51.86894000;5.39848000;2022-07-22T11:54:18;5.00;;;1.55;;
7829;SDS011;3960;51.86894000;5.39848000;2022-07-22T11:56:44;3.25;;;1.52;;
7829;SDS011;3960;51.86894000;5.39848000;2022-07-22T11:59:12;2.88;;;1.38;;
7829;SDS011;3960;51.86894000;5.39848000;2022-07-22T12:01:39;3.40;;;1.20;;
7829;SDS011;3960;51.86894000;5.39848000;2022-07-22T12:04:09;2.97;;;1.33;;
7829;SDS011;3960;51.86894000;5.39848000;2022-07-22T12:06:36;3.40;;;1.63;;
7829;SDS011;3960;51.86894000;5.39848000;2022-07-22T12:09:37;3.65;;;1.67;;
7829;SDS011;3960;51.86894000;5.39848000;2022-07-22T12:11:58;4.10;;;1.70;;
7829;SDS011;3960;51.86894000;5.39848000;2022-07-22T12:14:24;3.22;;;2.03;;
7829;SDS011;3960;51.86894000;5.39848000;2022-07-22T12:16:55;3.47;;;1.90;;
7829;SDS011;3960;51.86894000;5.39848000;2022-07-22T12:19:21;3.60;;;1.70;;
7829;SDS011;3960;51.86894000;5.39848000;2022-07-22T12:21:51;5.15;;;2.10;;
7829;SDS011;3960;51.86894000;5.39848000;2022-07-22T12:24:34;7.05;;;2.40;;
7829;SDS011;3960;51.86894000;5.39848000;2022-07-22T12:27:07;6.88;;;1.85;;
7829;SDS011;3960;51.86894000;5.39848000;2022-07-22T12:32:02;6.20;;;2.10;;
7829;SDS011;3960;51.86894000;5.39848000;2022-07-22T12:37:19;4.93;;;2.20;;
7829;SDS011;3960;51.86894000;5.39848000;2022-07-22T12:42:30;5.57;;;2.20;;
7829;SDS011;3960;51.86894000;5.39848000;2022-07-22T12:45:07;9.18;;;3.10;;
7829;SDS011;3960;51.86894000;5.39848000;2022-07-22T12:47:51;3.38;;;2.13;;
7829;SDS011;3960;51.86894000;5.39848000;2022-07-22T12:52:53;6.82;;;2.00;;
7829;SDS011;3960;51.86894000;5.39848000;2022-07-22T12:55:21;3.58;;;1.90;;
7829;SDS011;3960;51.86894000;5.39848000;2022-07-22T12:57:47;2.45;;;1.80;;
7829;SDS011;3960;51.86894000;5.39848000;2022-07-22T13:00:16;4.95;;;2.00;;
7829;SDS011;3960;51.86894000;5.39848000;2022-07-22T13:02:42;4.65;;;2.30;;
7829;SDS011;3960;51.86894000;5.39848000;2022-07-22T13:05:08;3.60;;;2.08;;
7829;SDS011;3960;51.86894000;5.39848000;2022-07-22T13:07:33;4.05;;;1.98;;
7829;SDS011;3960;51.86894000;5.39848000;2022-07-22T13:09:58;5.63;;;1.88;;
7829;SDS011;3960;51.86894000;5.39848000;2022-07-22T13:12:23;4.53;;;2.10;;
7829;SDS011;3960;51.86894000;5.39848000;2022-07-22T13:14:49;8.20;;;1.80;;
7829;SDS011;3960;51.86894000;5.39848000;2022-07-22T13:17:14;2.83;;;1.65;;
7829;SDS011;3960;51.86894000;5.39848000;2022-07-22T13:19:40;3.90;;;1.70;;
7829;SDS011;3960;51.86894000;5.39848000;2022-07-22T13:22:05;3.03;;;1.73;;
7829;SDS011;3960;51.86894000;5.39848000;2022-07-22T13:24:30;4.03;;;1.85;;
7829;SDS011;3960;51.86894000;5.39848000;2022-07-22T13:26:56;5.78;;;2.50;;
7829;SDS011;3960;51.86894000;5.39848000;2022-07-22T13:29:21;4.97;;;2.13;;
7829;SDS011;3960;51.86894000;5.39848000;2022-07-22T13:31:46;5.63;;;2.08;;
7829;SDS011;3960;51.86894000;5.39848000;2022-07-22T13:34:14;4.35;;;1.95;;
7829;SDS011;3960;51.86894000;5.39848000;2022-07-22T13:36:39;5.68;;;1.98;;